Stations météo

Publicité
Cap Gris Nez, France (7004): Température de l'air & dewpoint: 10.02.2019 08:00:00 - 16.02.2019 08:00:00 (CET)Cap Gris Nez, France (7004): Vitesse du vent & gusts: 10.02.2019 08:00:00 - 16.02.2019 08:00:00 (CET)Cap Gris Nez, France (7004): Direction du vent: 10.02.2019 08:00:00 - 16.02.2019 08:00:00 (CET)Cap Gris Nez, France (7004): Quantités de précipitations: 10.02.2019 08:00:00 - 16.02.2019 08:00:00 (CET)
Date & Time tt [°C] td [°C] ff [km/h] ff [knt] fx [km/h] fx [knt] dd rr [mm]
16.02.2019 08:00:00 6,8 3,2 28 15 42 23 S 0,0
16.02.2019 07:00:00 7,4 3,3 31 17 50 27 S -
16.02.2019 06:00:00 7,6 3,3 35 19 48 26 S 0,0
16.02.2019 05:00:00 7,7 3,2 34 18 46 25 S 0,0
16.02.2019 04:00:00 7,8 3,3 29 16 44 24 S 0,0
16.02.2019 03:00:00 8,5 2,9 34 18 46 25 S 0,0
16.02.2019 02:00:00 8,9 3,3 34 18 48 26 S 0,0
16.02.2019 01:00:00 9,7 3,2 31 17 44 24 S -
16.02.2019 00:00:00 9,3 3,1 29 16 42 23 S 0,0
15.02.2019 23:00:00 9,9 3,2 28 15 41 22 S 0,0
15.02.2019 22:00:00 9,7 4,3 26 14 35 19 S 0,0
15.02.2019 21:00:00 8,9 3,9 26 14 34 18 S 0,0
15.02.2019 20:00:00 9,2 4,0 22 12 28 15 S 0,0
15.02.2019 19:00:00 8,6 3,6 16 9 24 13 SSE -
15.02.2019 18:00:00 9,3 3,9 15 8 22 12 S 0,0
15.02.2019 17:00:00 10,5 4,2 13 7 21 11 S 0,0
15.02.2019 16:00:00 10,9 5,0 11 6 18 10 SSW 0,0
15.02.2019 15:00:00 10,3 5,1 9 5 15 8 SW 0,0
15.02.2019 14:00:00 11,1 4,3 9 5 16 9 SSW 0,0
15.02.2019 13:00:00 10,9 3,7 9 5 18 10 SSW -
15.02.2019 12:00:00 12,1 5,3 11 6 18 10 SSE 0,0
15.02.2019 11:00:00 10,2 4,1 13 7 26 14 S 0,0
15.02.2019 10:00:00 8,4 2,8 18 10 26 14 S 0,0
15.02.2019 09:00:00 6,6 1,9 18 10 28 15 S 0,0
15.02.2019 08:00:00 4,8 1,3 21 11 24 13 SSE 0,0
15.02.2019 07:00:00 5,6 1,7 15 8 21 11 S -
15.02.2019 06:00:00 6,0 1,3 13 7 24 13 S 0,0
15.02.2019 05:00:00 6,5 2,0 16 9 24 13 SSE 0,0
15.02.2019 04:00:00 6,4 1,3 16 9 22 12 SSE 0,0
15.02.2019 03:00:00 6,6 1,3 16 9 24 13 SSE 0,0
15.02.2019 02:00:00 6,7 2,4 11 6 21 11 S 0,0
15.02.2019 01:00:00 6,8 3,0 8 4 26 14 E -
15.02.2019 00:00:00 6,4 2,5 18 10 29 16 SSE 0,0
14.02.2019 23:00:00 6,8 3,0 24 13 35 19 SE 0,0
14.02.2019 22:00:00 6,6 2,7 26 14 34 18 SSE 0,0
14.02.2019 21:00:00 6,7 2,4 16 9 24 13 SE 0,0
14.02.2019 20:00:00 7,6 2,7 15 8 22 12 SE 0,0
14.02.2019 19:00:00 7,7 3,2 13 7 16 9 SE -
14.02.2019 18:00:00 6,8 2,7 8 4 13 7 E 0,0
14.02.2019 17:00:00 8,1 3,2 4 2 8 4 NE 0,0
14.02.2019 16:00:00 9,8 2,6 4 2 9 5 W 0,0
14.02.2019 15:00:00 9,7 3,0 5 3 11 6 SW 0,0
14.02.2019 14:00:00 9,8 4,2 5 3 9 5 SW 0,0
14.02.2019 13:00:00 8,7 3,5 4 2 11 6 WSW -
14.02.2019 12:00:00 9,5 3,7 5 3 15 8 SSW 0,0
14.02.2019 11:00:00 8,3 2,7 9 5 18 10 SE 0,0
14.02.2019 10:00:00 7,1 3,0 15 8 21 11 SE 0,0
14.02.2019 09:00:00 4,5 0,4 11 6 18 10 SE 0,0
14.02.2019 08:00:00 4,4 -0,4 16 9 26 14 S 0,0
14.02.2019 07:00:00 5,4 0,4 16 9 24 13 S -
14.02.2019 06:00:00 4,9 0,5 18 10 29 16 S 0,0
14.02.2019 05:00:00 3,3 -0,3 18 10 26 14 SSE 0,0
14.02.2019 04:00:00 4,4 0,5 15 8 26 14 S 0,0
14.02.2019 03:00:00 4,6 1,1 21 11 29 16 S 0,0
14.02.2019 02:00:00 4,3 1,2 21 11 29 16 S 0,0
14.02.2019 01:00:00 3,9 1,1 18 10 24 13 S -
14.02.2019 00:00:00 3,8 1,2 21 11 31 17 S 0,0
13.02.2019 23:00:00 4,4 1,8 21 11 29 16 SSE 0,0
13.02.2019 22:00:00 4,4 1,6 18 10 28 15 S 0,0
13.02.2019 21:00:00 5,3 2,1 22 12 29 16 S 0,0
13.02.2019 20:00:00 5,6 3,1 15 8 18 10 S 0,0
13.02.2019 19:00:00 5,8 3,5 11 6 16 9 S -
13.02.2019 18:00:00 6,3 3,6 16 9 28 15 S 0,0
13.02.2019 17:00:00 7,3 4,1 21 11 35 19 SSW 0,0
13.02.2019 16:00:00 7,0 4,0 28 15 37 20 SW 0,0
13.02.2019 15:00:00 7,5 4,8 26 14 39 21 SSW 0,0
13.02.2019 14:00:00 7,0 4,5 29 16 44 24 SSW 0,0
13.02.2019 13:00:00 6,5 4,0 34 18 41 22 SSW -
13.02.2019 12:00:00 6,0 3,8 29 16 39 21 SSW 0,0
13.02.2019 11:00:00 5,7 3,5 24 13 39 21 S 0,0
13.02.2019 10:00:00 4,9 3,1 22 12 34 18 S 0,0
13.02.2019 09:00:00 4,1 2,4 21 11 28 15 S 0,0
13.02.2019 08:00:00 3,8 2,2 22 12 31 17 S 0,0
13.02.2019 07:00:00 4,0 2,5 22 12 31 17 S -
13.02.2019 06:00:00 4,3 3,0 22 12 34 18 S 0,0
13.02.2019 05:00:00 4,8 3,8 21 11 29 16 S 0,0
13.02.2019 04:00:00 5,3 4,3 21 11 35 19 S 0,0
13.02.2019 03:00:00 5,8 4,9 22 12 35 19 S 0,0
13.02.2019 02:00:00 6,7 5,8 24 13 31 17 S 0,0
13.02.2019 01:00:00 6,6 5,7 21 11 34 18 SSW -
13.02.2019 00:00:00 6,3 5,3 24 13 37 20 SSW 0,0
12.02.2019 23:00:00 6,2 5,2 28 15 39 21 SSW 0,0
12.02.2019 22:00:00 7,4 6,3 24 13 35 19 SW 0,0
12.02.2019 21:00:00 7,2 6,3 28 15 37 20 SSW 0,0
12.02.2019 20:00:00 7,2 6,1 24 13 37 20 SW 0,0
12.02.2019 19:00:00 6,9 5,8 26 14 37 20 SW -
12.02.2019 18:00:00 6,9 5,7 29 16 37 20 SSW 0,0
12.02.2019 17:00:00 7,3 5,8 29 16 41 22 SSW 0,0
12.02.2019 16:00:00 7,6 5,6 29 16 41 22 SSW 0,0
12.02.2019 15:00:00 7,8 5,4 28 15 46 25 SW 0,0
12.02.2019 14:00:00 8,5 5,2 26 14 35 19 SW 0,0
12.02.2019 13:00:00 8,6 5,9 28 15 34 18 WSW -
12.02.2019 12:00:00 7,8 5,6 26 14 31 17 W 0,0
12.02.2019 11:00:00 8,0 5,3 24 13 29 16 SW 0,0
12.02.2019 10:00:00 7,6 4,2 22 12 28 15 SW 0,0
12.02.2019 09:00:00 7,1 4,2 21 11 31 17 WSW 0,0
12.02.2019 08:00:00 7,0 5,0 18 10 31 17 SSW 0,0
12.02.2019 07:00:00 5,4 3,2 16 9 22 12 S -
12.02.2019 06:00:00 6,3 3,6 9 5 16 9 SSW 0,0
12.02.2019 05:00:00 5,6 3,6 11 6 24 13 S 0,0
12.02.2019 04:00:00 5,1 2,6 15 8 22 12 S 0,0
12.02.2019 03:00:00 5,6 3,3 15 8 21 11 S 0,0
12.02.2019 02:00:00 5,6 3,9 15 8 18 10 S 0,0
12.02.2019 01:00:00 5,2 3,8 13 7 16 9 S -
12.02.2019 00:00:00 5,1 3,4 9 5 15 8 S 0,0
11.02.2019 23:00:00 4,9 3,1 9 5 15 8 S 0,0
11.02.2019 22:00:00 5,2 3,2 8 4 15 8 E 0,0
11.02.2019 21:00:00 5,5 3,3 9 5 18 10 ENE 0,0
11.02.2019 20:00:00 5,8 3,5 16 9 21 11 NE 0,0
11.02.2019 19:00:00 6,7 3,7 16 9 22 12 N -
11.02.2019 18:00:00 6,7 3,1 9 5 24 13 N 0,0
11.02.2019 17:00:00 7,0 2,9 15 8 22 12 N 0,0
11.02.2019 16:00:00 7,3 3,2 15 8 26 14 N 0,0
11.02.2019 15:00:00 7,2 2,9 15 8 26 14 NNW 0,0
11.02.2019 14:00:00 7,0 2,9 21 11 29 16 NNW 0,0
11.02.2019 13:00:00 6,7 2,8 21 11 34 18 NNW -
11.02.2019 12:00:00 6,3 2,6 22 12 35 19 NNW 0,0
11.02.2019 11:00:00 6,1 2,9 28 15 35 19 NNW 0,0
11.02.2019 10:00:00 5,9 3,1 24 13 37 20 NNW 0,0
11.02.2019 09:00:00 5,7 3,0 28 15 39 21 NNW 0,0
11.02.2019 08:00:00 5,6 3,1 18 10 29 16 NW 0,0
11.02.2019 07:00:00 5,5 2,5 21 11 31 17 NW -
11.02.2019 06:00:00 5,9 2,4 26 14 42 23 W 0,0
11.02.2019 05:00:00 6,1 2,7 34 18 48 26 W 0,0
11.02.2019 04:00:00 6,5 2,6 41 22 57 31 W 0,0
11.02.2019 03:00:00 6,5 2,9 44 24 54 29 W 0,0
11.02.2019 02:00:00 6,4 2,5 41 22 59 32 W 0,0
11.02.2019 01:00:00 6,3 2,0 46 25 61 33 W -
11.02.2019 00:00:00 6,1 1,6 44 24 57 31 W 0,0
10.02.2019 23:00:00 6,2 1,5 44 24 65 35 W 0,0
10.02.2019 22:00:00 6,3 1,8 48 26 67 36 W 0,0
10.02.2019 21:00:00 6,5 2,4 54 29 70 38 W 0,0
10.02.2019 20:00:00 6,4 2,7 52 28 68 37 W 0,0
10.02.2019 19:00:00 6,5 3,1 48 26 81 44 W -
10.02.2019 18:00:00 7,0 3,1 48 26 65 35 W 0,0
10.02.2019 17:00:00 6,6 3,4 44 24 70 38 WNW 0,0
10.02.2019 16:00:00 6,4 2,8 50 27 68 37 WNW 0,0
10.02.2019 15:00:00 6,6 3,6 52 28 74 40 WNW 0,0
10.02.2019 14:00:00 6,9 4,7 52 28 68 37 W 0,0
10.02.2019 13:00:00 6,7 5,2 55 30 74 40 W -
10.02.2019 12:00:00 6,7 5,8 59 32 93 50 W 0,0
10.02.2019 11:00:00 7,2 6,6 68 37 87 47 WSW 0,6
10.02.2019 10:00:00 7,0 6,4 28 15 37 20 SW 0,4
10.02.2019 09:00:00 6,9 6,3 29 16 39 21 WSW 0,0
10.02.2019 08:00:00 6,7 6,1 29 16 48 26 WSW 0,0

tt = Température de l'air
td = dewpoint
ff = Vitesse du vent
fx = gusts
dd = Direction du vent
rr = Quantités de précipitations

stations d'obs. à proximité